createdAt,value
2019-03-08T00:00:17.991Z,10.10
2019-03-08T00:02:45.982Z,8.17
2019-03-08T00:05:14.090Z,9.70
2019-03-08T00:07:42.255Z,9.37
2019-03-08T00:10:10.322Z,10.53
2019-03-08T00:12:38.309Z,9.13
2019-03-08T00:15:06.617Z,7.57
2019-03-08T00:17:34.671Z,9.47
2019-03-08T00:20:02.753Z,12.20
2019-03-08T00:22:30.801Z,9.00
2019-03-08T00:24:58.815Z,12.07
2019-03-08T00:27:26.761Z,13.70
2019-03-08T00:29:54.883Z,9.87
2019-03-08T00:32:22.907Z,8.97
2019-03-08T00:34:53.930Z,12.10
2019-03-08T00:37:22.039Z,16.70
2019-03-08T00:39:50.080Z,18.77
2019-03-08T00:42:19.020Z,17.57
2019-03-08T00:44:47.127Z,10.93
2019-03-08T00:47:15.205Z,14.17
2019-03-08T00:49:43.593Z,17.00
2019-03-08T00:52:11.787Z,14.07
2019-03-08T00:54:40.052Z,18.43
2019-03-08T00:57:08.337Z,16.00
2019-03-08T00:59:36.434Z,13.93
2019-03-08T01:02:04.518Z,18.13
2019-03-08T01:04:32.532Z,17.83
2019-03-08T01:07:00.865Z,15.80
2019-03-08T01:09:28.836Z,16.20
2019-03-08T01:11:56.877Z,14.70
2019-03-08T01:14:24.958Z,15.27
2019-03-08T01:16:53.153Z,22.57
2019-03-08T01:19:21.470Z,21.83
2019-03-08T01:21:49.474Z,17.77
2019-03-08T01:24:17.415Z,15.20
2019-03-08T01:26:45.356Z,22.17
2019-03-08T01:29:13.348Z,14.77
2019-03-08T01:31:41.322Z,13.37
2019-03-08T01:34:09.375Z,18.17
2019-03-08T01:36:37.401Z,21.77
2019-03-08T01:39:05.986Z,25.23
2019-03-08T01:41:34.067Z,19.97
2019-03-08T01:44:02.092Z,15.90
2019-03-08T01:46:30.148Z,18.63
2019-03-08T01:48:58.444Z,30.77
2019-03-08T01:51:26.658Z,25.97
2019-03-08T01:53:54.715Z,24.70
2019-03-08T01:56:22.741Z,31.23
2019-03-08T01:58:50.754Z,25.77
2019-03-08T02:01:18.651Z,23.50
2019-03-08T02:03:46.751Z,22.73
2019-03-08T02:06:14.803Z,26.23
2019-03-08T02:08:43.051Z,23.77
2019-03-08T02:11:11.032Z,24.57
2019-03-08T02:13:39.048Z,23.33
2019-03-08T02:16:07.173Z,20.67
2019-03-08T02:18:36.441Z,21.23
2019-03-08T02:21:07.173Z,20.03
2019-03-08T02:23:35.711Z,23.50
2019-03-08T02:26:03.712Z,23.47
2019-03-08T02:28:31.715Z,21.40
2019-03-08T02:30:59.727Z,20.73
2019-03-08T02:33:27.790Z,29.00
2019-03-08T02:35:56.089Z,28.47
2019-03-08T02:38:24.414Z,20.37
2019-03-08T02:40:52.497Z,33.33
2019-03-08T02:43:20.672Z,26.13
2019-03-08T02:45:48.732Z,29.00
2019-03-08T02:48:16.745Z,32.83
2019-03-08T02:50:44.794Z,30.17
2019-03-08T02:53:13.239Z,24.03
2019-03-08T02:55:41.328Z,26.70
2019-03-08T02:58:09.271Z,25.17
2019-03-08T03:00:46.885Z,26.53
2019-03-08T03:03:17.507Z,36.00
2019-03-08T03:05:45.436Z,28.27
2019-03-08T03:08:13.470Z,29.63
2019-03-08T03:10:41.476Z,24.03
2019-03-08T03:13:09.444Z,27.07
2019-03-08T03:15:37.417Z,31.33
2019-03-08T03:18:05.455Z,23.97
2019-03-08T03:20:33.535Z,26.93
2019-03-08T03:23:01.507Z,29.53
2019-03-08T03:25:29.531Z,24.10
2019-03-08T03:27:57.569Z,36.40
2019-03-08T03:30:25.584Z,26.13
2019-03-08T03:32:53.636Z,27.83
2019-03-08T03:35:21.587Z,26.87
2019-03-08T03:37:49.849Z,25.37
2019-03-08T03:40:17.859Z,28.70
2019-03-08T03:42:45.852Z,25.20
2019-03-08T03:45:13.891Z,31.70
2019-03-08T03:47:41.944Z,33.50
2019-03-08T03:50:12.937Z,27.57
2019-03-08T03:52:41.212Z,27.23
2019-03-08T03:55:09.728Z,24.83
2019-03-08T03:57:37.716Z,22.90
2019-03-08T04:00:06.643Z,28.67
2019-03-08T04:02:34.719Z,21.73
2019-03-08T04:05:02.758Z,32.20
2019-03-08T04:07:31.012Z,32.97
2019-03-08T04:09:59.109Z,22.77
2019-03-08T04:12:27.304Z,36.10
2019-03-08T04:14:55.323Z,25.80
2019-03-08T04:17:23.257Z,30.83
2019-03-08T04:19:51.684Z,29.63
2019-03-08T04:22:19.845Z,25.67
2019-03-08T04:24:47.876Z,32.47
2019-03-08T04:27:15.912Z,28.23
2019-03-08T04:29:44.170Z,30.23
2019-03-08T04:32:12.217Z,27.33
2019-03-08T04:34:40.280Z,30.83
2019-03-08T04:37:08.355Z,20.90
2019-03-08T04:39:36.339Z,28.97
2019-03-08T04:42:04.333Z,26.77
2019-03-08T04:44:32.463Z,26.90
2019-03-08T04:47:00.560Z,26.00
2019-03-08T04:49:30.905Z,35.23
2019-03-08T04:51:59.465Z,28.50
2019-03-08T04:54:27.511Z,26.50
2019-03-08T04:56:55.560Z,33.93
2019-03-08T04:59:23.704Z,32.03
2019-03-08T05:01:51.701Z,24.17
2019-03-08T05:04:19.670Z,25.23
2019-03-08T05:06:47.739Z,28.53
2019-03-08T05:09:16.088Z,25.23
2019-03-08T05:11:44.280Z,18.13
2019-03-08T05:14:12.449Z,19.70
2019-03-08T05:16:40.619Z,22.20
2019-03-08T05:19:08.663Z,26.80
2019-03-08T05:21:36.736Z,28.10
2019-03-08T05:24:04.965Z,28.00
2019-03-08T05:26:33.225Z,20.03
2019-03-08T05:29:01.356Z,24.60
2019-03-08T05:31:29.578Z,20.23
2019-03-08T05:33:57.692Z,22.30
2019-03-08T05:36:25.778Z,27.50
2019-03-08T05:38:54.215Z,23.70
2019-03-08T05:41:22.325Z,25.43
2019-03-08T05:43:50.534Z,18.70
2019-03-08T05:46:18.549Z,21.27
2019-03-08T05:48:46.542Z,27.87
2019-03-08T05:51:14.618Z,19.00
2019-03-08T05:53:42.618Z,29.50
2019-03-08T05:56:11.038Z,17.70
2019-03-08T05:58:39.174Z,18.50
2019-03-08T06:01:07.265Z,15.80
2019-03-08T06:03:35.340Z,18.50
2019-03-08T06:06:03.349Z,16.97
2019-03-08T06:08:31.356Z,19.33
2019-03-08T06:10:59.321Z,20.83
2019-03-08T06:13:27.394Z,20.33
2019-03-08T06:15:55.386Z,19.90
2019-03-08T06:18:23.381Z,19.60
2019-03-08T06:20:51.360Z,23.47
2019-03-08T06:23:19.956Z,19.20
2019-03-08T06:25:48.266Z,16.60
2019-03-08T06:28:16.512Z,25.80
2019-03-08T06:30:44.451Z,23.53
2019-03-08T06:33:12.529Z,23.57
2019-03-08T06:35:40.862Z,22.73
2019-03-08T06:38:08.915Z,23.53
2019-03-08T06:40:36.851Z,22.27
2019-03-08T06:43:04.884Z,22.63
2019-03-08T06:45:32.869Z,26.67
2019-03-08T06:48:00.948Z,15.87
2019-03-08T06:50:28.969Z,21.17
2019-03-08T06:52:56.979Z,17.83
2019-03-08T06:55:25.271Z,21.57
2019-03-08T06:57:58.800Z,26.47
2019-03-08T07:00:48.638Z,20.03
2019-03-08T07:03:16.724Z,26.60
2019-03-08T07:05:44.719Z,20.00
2019-03-08T07:08:13.640Z,26.93
2019-03-08T07:10:41.937Z,17.57
2019-03-08T07:13:09.854Z,22.23
2019-03-08T07:15:38.043Z,21.47
2019-03-08T07:18:12.581Z,23.30
2019-03-08T07:20:47.569Z,20.83
2019-03-08T07:23:33.914Z,21.93
2019-03-08T07:26:23.979Z,14.10
2019-03-08T07:29:11.335Z,13.03
2019-03-08T07:32:04.429Z,20.83
2019-03-08T07:34:56.739Z,17.90
2019-03-08T07:37:46.593Z,17.80
2019-03-08T07:40:36.541Z,17.90
2019-03-08T07:43:29.397Z,15.97
2019-03-08T07:46:07.064Z,10.63
2019-03-08T07:48:52.741Z,15.60
2019-03-08T07:51:46.063Z,15.47
2019-03-08T07:54:28.444Z,14.53
2019-03-08T07:57:04.051Z,11.07
2019-03-08T07:59:54.031Z,14.37
2019-03-08T08:02:52.297Z,13.43
2019-03-08T08:05:42.158Z,11.80
2019-03-08T08:08:23.126Z,11.23
2019-03-08T08:11:13.284Z,18.27
2019-03-08T08:13:50.770Z,14.47
2019-03-08T08:16:44.251Z,24.33
2019-03-08T08:19:39.431Z,12.60
2019-03-08T08:22:25.280Z,15.97
2019-03-08T08:25:12.364Z,15.47
2019-03-08T08:27:58.234Z,19.63
2019-03-08T08:30:36.339Z,18.10
2019-03-08T08:33:32.602Z,17.70
2019-03-08T08:36:19.660Z,15.23
2019-03-08T08:39:12.832Z,18.30
2019-03-08T08:41:59.929Z,16.57
2019-03-08T08:44:53.197Z,14.20
2019-03-08T08:47:32.312Z,13.57
2019-03-08T08:50:19.345Z,19.00
2019-03-08T08:53:06.471Z,15.47
2019-03-08T08:55:52.672Z,18.37
2019-03-08T08:58:38.562Z,15.20
2019-03-08T09:01:25.185Z,12.20
2019-03-08T09:04:17.919Z,11.47
2019-03-08T09:06:54.937Z,16.87
2019-03-08T09:09:48.093Z,16.17
2019-03-08T09:12:26.698Z,15.60
2019-03-08T09:15:00.291Z,16.90
2019-03-08T09:17:47.401Z,13.10
2019-03-08T09:20:36.348Z,16.37
2019-03-08T09:23:26.238Z,14.57
2019-03-08T09:26:05.220Z,15.67
2019-03-08T09:28:39.896Z,16.50
2019-03-08T09:31:14.928Z,13.93
2019-03-08T09:34:04.336Z,10.83
2019-03-08T09:36:38.753Z,15.97
2019-03-08T09:39:34.940Z,12.93
2019-03-08T09:42:30.883Z,11.73
2019-03-08T09:45:25.335Z,10.43
2019-03-08T09:48:03.587Z,16.33
2019-03-08T09:51:00.143Z,13.53
2019-03-08T09:53:43.136Z,11.77
2019-03-08T09:56:19.882Z,16.60
2019-03-08T09:59:05.657Z,11.20
2019-03-08T10:01:55.749Z,15.57
2019-03-08T10:04:41.175Z,12.73
2019-03-08T10:07:20.062Z,12.10
2019-03-08T10:10:16.028Z,13.77
2019-03-08T10:13:06.298Z,9.93
2019-03-08T10:15:56.103Z,15.93
2019-03-08T10:18:51.246Z,12.17
2019-03-08T10:21:41.188Z,8.93
2019-03-08T10:24:37.487Z,12.07
2019-03-08T10:27:43.023Z,14.90
2019-03-08T10:30:23.347Z,13.13
2019-03-08T10:33:10.242Z,15.10
2019-03-08T10:35:56.980Z,10.90
2019-03-08T10:38:47.079Z,18.30
2019-03-08T10:41:21.944Z,11.83
2019-03-08T10:44:15.588Z,10.50
2019-03-08T10:47:01.728Z,9.77
2019-03-08T10:49:40.350Z,11.07
2019-03-08T10:52:27.470Z,11.17
2019-03-08T10:55:13.480Z,11.47
2019-03-08T10:57:59.314Z,12.03
2019-03-08T11:00:44.940Z,9.90
2019-03-08T11:03:39.057Z,13.83
2019-03-08T11:06:20.400Z,16.93
2019-03-08T11:09:05.305Z,8.03
2019-03-08T11:11:58.353Z,11.80
2019-03-08T11:14:48.270Z,7.67
2019-03-08T11:17:35.941Z,12.23
2019-03-08T11:20:24.911Z,9.20
2019-03-08T11:23:16.703Z,9.13
2019-03-08T11:26:02.670Z,10.97
2019-03-08T11:28:59.182Z,10.33
2019-03-08T11:31:34.903Z,10.40
2019-03-08T11:34:13.849Z,8.73
2019-03-08T11:37:04.331Z,9.43
2019-03-08T11:39:37.882Z,11.33
2019-03-08T11:42:27.886Z,11.07
2019-03-08T11:45:26.323Z,8.43
2019-03-08T11:48:20.994Z,11.97
2019-03-08T11:51:06.883Z,12.17
2019-03-08T11:53:56.258Z,8.47
2019-03-08T11:56:56.735Z,7.47
2019-03-08T11:59:53.148Z,8.07
2019-03-08T12:02:50.098Z,11.43
2019-03-08T12:05:41.005Z,7.07
2019-03-08T12:08:25.443Z,9.73
2019-03-08T12:11:24.482Z,7.17
2019-03-08T12:13:59.388Z,8.10
2019-03-08T12:16:45.681Z,9.97
2019-03-08T12:19:34.310Z,7.93
2019-03-08T12:22:24.499Z,6.50
2019-03-08T12:25:02.020Z,8.40
2019-03-08T12:27:47.032Z,8.70
2019-03-08T12:30:34.897Z,8.40
2019-03-08T12:33:20.312Z,6.63
2019-03-08T12:35:53.398Z,7.20
2019-03-08T12:38:46.711Z,8.23
2019-03-08T12:41:32.760Z,8.40
2019-03-08T12:44:17.269Z,5.33
2019-03-08T12:46:53.544Z,6.73
2019-03-08T12:49:58.755Z,6.63
2019-03-08T12:52:48.668Z,5.90
2019-03-08T12:55:51.203Z,7.50
2019-03-08T12:58:35.430Z,7.93
2019-03-08T13:01:21.521Z,6.77
2019-03-08T13:04:08.666Z,8.87
2019-03-08T13:06:53.611Z,7.20
2019-03-08T13:09:43.678Z,8.40
2019-03-08T13:12:11.691Z,6.20
2019-03-08T13:14:39.710Z,6.53
2019-03-08T13:17:07.833Z,6.27
2019-03-08T13:19:36.064Z,8.73
2019-03-08T13:22:04.144Z,8.00
2019-03-08T13:24:32.160Z,8.57
2019-03-08T13:27:00.252Z,9.73
2019-03-08T13:29:28.322Z,6.73
2019-03-08T13:31:56.794Z,5.97
2019-03-08T13:34:24.848Z,7.77
2019-03-08T13:36:52.848Z,8.70
2019-03-08T13:39:21.018Z,10.33
2019-03-08T13:41:49.147Z,7.40
2019-03-08T13:44:17.233Z,7.47
2019-03-08T13:46:45.306Z,7.00
2019-03-08T13:49:13.300Z,8.70
2019-03-08T13:51:41.243Z,7.50
2019-03-08T13:54:09.286Z,6.17
2019-03-08T13:56:37.362Z,10.47
2019-03-08T13:59:05.376Z,8.07
2019-03-08T14:01:33.354Z,7.67
2019-03-08T14:04:01.392Z,11.17
2019-03-08T14:06:29.675Z,9.03
2019-03-08T14:08:57.748Z,10.93
2019-03-08T14:11:25.691Z,10.67
2019-03-08T14:13:53.711Z,6.13
2019-03-08T14:16:21.713Z,8.30
2019-03-08T14:18:49.733Z,8.90
2019-03-08T14:21:18.209Z,6.97
2019-03-08T14:23:46.380Z,9.00
2019-03-08T14:26:14.315Z,6.37
2019-03-08T14:28:42.285Z,9.37
2019-03-08T14:31:32.995Z,9.60
2019-03-08T14:34:01.067Z,8.10
2019-03-08T14:36:29.265Z,5.83
2019-03-08T14:38:58.574Z,7.77
2019-03-08T14:42:03.926Z,7.43
2019-03-08T14:44:56.955Z,9.57
2019-03-08T14:47:40.933Z,8.47
2019-03-08T14:50:11.331Z,7.53
2019-03-08T14:52:39.600Z,9.00
2019-03-08T14:55:09.041Z,7.97
2019-03-08T14:57:37.615Z,9.23
2019-03-08T15:00:07.003Z,9.30
2019-03-08T15:02:36.529Z,9.80
2019-03-08T15:05:11.269Z,7.57
2019-03-08T15:07:41.089Z,9.77
2019-03-08T15:10:10.785Z,10.17
2019-03-08T15:12:48.447Z,10.30
2019-03-08T15:15:11.321Z,10.03
2019-03-08T15:17:39.248Z,7.17
2019-03-08T15:20:15.192Z,13.50
2019-03-08T15:22:39.432Z,6.23
2019-03-08T15:25:08.465Z,9.97
2019-03-08T15:27:37.895Z,5.40
2019-03-08T15:30:07.152Z,9.17
2019-03-08T15:32:35.200Z,11.33
2019-03-08T15:35:03.250Z,9.60
2019-03-08T15:37:31.473Z,7.17
2019-03-08T15:39:59.687Z,7.50
2019-03-08T15:42:27.896Z,10.03
2019-03-08T15:44:56.120Z,6.87
2019-03-08T15:47:24.784Z,10.53
2019-03-08T15:49:53.767Z,7.60
2019-03-08T15:52:26.126Z,6.90
2019-03-08T15:54:56.764Z,8.93
2019-03-08T15:57:25.009Z,7.27
2019-03-08T16:02:49.259Z,13.87
2019-03-08T16:05:17.778Z,9.57
2019-03-08T16:07:50.632Z,8.83
2019-03-08T16:10:19.877Z,9.50
2019-03-08T16:12:50.087Z,10.97
2019-03-08T16:15:18.234Z,8.73
2019-03-08T16:17:46.461Z,10.17
2019-03-08T16:20:16.172Z,11.43
2019-03-08T16:22:44.309Z,12.47
2019-03-08T16:25:13.063Z,10.97
2019-03-08T16:27:42.913Z,13.60
2019-03-08T16:30:16.389Z,10.17
2019-03-08T16:33:02.404Z,6.00
2019-03-08T16:35:55.351Z,12.53
2019-03-08T16:38:46.780Z,15.40
2019-03-08T16:41:33.270Z,10.37
2019-03-08T16:44:35.880Z,12.13
2019-03-08T16:47:14.279Z,12.50
2019-03-08T16:50:00.287Z,13.67
2019-03-08T16:52:37.025Z,9.30
2019-03-08T16:55:35.426Z,16.93
2019-03-08T16:58:22.815Z,14.93
2019-03-08T17:01:19.237Z,16.47
2019-03-08T17:04:09.517Z,11.30
2019-03-08T17:07:04.601Z,10.43
2019-03-08T17:09:51.894Z,11.30
2019-03-08T17:12:48.209Z,12.53
2019-03-08T17:15:38.441Z,13.30
2019-03-08T17:18:25.664Z,18.03
2019-03-08T17:21:01.692Z,8.93
2019-03-08T17:23:57.391Z,11.10
2019-03-08T17:26:30.340Z,17.00
2019-03-08T17:29:29.613Z,13.20
2019-03-08T17:32:05.644Z,14.60
2019-03-08T17:34:52.126Z,10.13
2019-03-08T17:37:34.262Z,16.90
2019-03-08T17:40:24.713Z,13.33
2019-03-08T17:43:11.326Z,16.03
2019-03-08T17:46:13.813Z,16.40
2019-03-08T17:49:07.000Z,13.07
2019-03-08T17:51:45.589Z,14.40
2019-03-08T17:54:39.238Z,14.50
2019-03-08T17:57:26.231Z,11.27
2019-03-08T18:00:16.281Z,14.13
2019-03-08T18:02:59.414Z,21.60
2019-03-08T18:05:49.437Z,18.97
2019-03-08T18:08:35.077Z,13.73
2019-03-08T18:11:22.193Z,16.37
2019-03-08T18:14:24.954Z,15.60
2019-03-08T18:17:10.915Z,13.50
2019-03-08T18:19:48.517Z,16.70
2019-03-08T18:22:32.855Z,12.13
2019-03-08T18:25:23.840Z,13.23
2019-03-08T18:28:13.688Z,18.80
2019-03-08T18:31:12.522Z,16.40
2019-03-08T18:33:48.732Z,12.80
2019-03-08T18:36:32.326Z,14.37
2019-03-08T18:39:19.863Z,17.40
2019-03-08T18:41:57.551Z,16.50
2019-03-08T18:44:37.889Z,14.43
2019-03-08T18:47:33.593Z,11.77
2019-03-08T18:50:19.510Z,20.47
2019-03-08T18:53:06.567Z,14.80
2019-03-08T18:55:43.824Z,15.63
2019-03-08T18:58:33.801Z,16.83
2019-03-08T19:01:33.127Z,12.80
2019-03-08T19:04:24.135Z,14.23
2019-03-08T19:07:09.940Z,13.37
2019-03-08T19:09:46.431Z,14.07
2019-03-08T19:12:45.811Z,18.17
2019-03-08T19:15:30.727Z,9.47
2019-03-08T19:18:20.513Z,15.67
2019-03-08T19:21:02.061Z,13.43
2019-03-08T19:23:47.818Z,15.67
2019-03-08T19:26:37.961Z,14.90
2019-03-08T19:29:27.675Z,13.30
2019-03-08T19:32:20.893Z,15.70
2019-03-08T19:34:56.900Z,15.40
2019-03-08T19:37:42.683Z,11.17
2019-03-08T19:40:24.438Z,12.77
2019-03-08T19:43:15.632Z,8.83
2019-03-08T19:46:01.275Z,7.00
2019-03-08T19:48:47.123Z,11.10
2019-03-08T19:51:37.111Z,7.70
2019-03-08T19:54:12.278Z,7.17
2019-03-08T19:56:57.746Z,10.90
2019-03-08T19:59:47.856Z,8.23
2019-03-08T20:02:22.083Z,11.20
2019-03-08T20:05:07.870Z,12.30
2019-03-08T20:07:48.281Z,14.83
2019-03-08T20:10:38.244Z,16.20
2019-03-08T20:13:34.340Z,12.90
2019-03-08T20:16:19.923Z,11.07
2019-03-08T20:19:04.496Z,13.70
2019-03-08T20:21:41.687Z,11.10
2019-03-08T20:24:18.578Z,9.83
2019-03-08T20:27:17.592Z,8.30
2019-03-08T20:30:07.619Z,11.73
2019-03-08T20:32:55.746Z,11.33
2019-03-08T20:35:41.526Z,11.20
2019-03-08T20:38:37.442Z,8.00
2019-03-08T20:41:18.934Z,6.63
2019-03-08T20:44:12.459Z,13.87
2019-03-08T20:46:44.834Z,7.13
2019-03-08T20:49:12.859Z,8.23
2019-03-08T20:51:41.115Z,7.17
2019-03-08T20:54:09.151Z,7.60
2019-03-08T20:56:37.382Z,7.50
2019-03-08T20:59:05.771Z,7.87
2019-03-08T21:01:34.009Z,6.83
2019-03-08T21:04:04.766Z,8.03
2019-03-08T21:06:32.769Z,7.03
2019-03-08T21:09:00.926Z,8.10
2019-03-08T21:11:28.938Z,7.87
2019-03-08T21:13:56.996Z,5.77
2019-03-08T21:16:25.236Z,6.07
2019-03-08T21:18:53.215Z,8.67
2019-03-08T21:21:21.221Z,8.90
2019-03-08T21:23:49.252Z,9.33
2019-03-08T21:26:17.276Z,12.07
2019-03-08T21:28:45.242Z,8.23
2019-03-08T21:31:13.203Z,8.87
2019-03-08T21:33:41.249Z,7.50
2019-03-08T21:36:09.267Z,7.07
2019-03-08T21:38:37.230Z,7.37
2019-03-08T21:41:05.228Z,10.20
2019-03-08T21:43:33.178Z,7.30
2019-03-08T21:46:01.161Z,7.87
2019-03-08T21:48:29.130Z,7.17
2019-03-08T21:50:57.051Z,6.83
2019-03-08T21:53:24.985Z,9.37
2019-03-08T21:55:53.237Z,8.37
2019-03-08T21:58:21.169Z,7.20
2019-03-08T22:00:49.084Z,8.83
2019-03-08T22:03:17.105Z,9.93
2019-03-08T22:05:45.159Z,8.20
2019-03-08T22:08:17.215Z,7.87
2019-03-08T22:11:07.993Z,9.83
2019-03-08T22:13:36.175Z,7.63
2019-03-08T22:16:04.115Z,10.13
2019-03-08T22:18:32.543Z,12.60
2019-03-08T22:21:00.446Z,9.57
2019-03-08T22:23:28.604Z,9.60
2019-03-08T22:25:56.784Z,12.00
2019-03-08T22:28:25.238Z,10.30
2019-03-08T22:30:53.176Z,9.13
2019-03-08T22:33:21.394Z,10.50
2019-03-08T22:35:49.376Z,13.90
2019-03-08T22:38:17.304Z,11.90
2019-03-08T22:40:45.241Z,15.87
2019-03-08T22:43:13.115Z,9.43
2019-03-08T22:45:41.043Z,16.73
2019-03-08T22:48:09.067Z,12.57
2019-03-08T22:50:37.181Z,15.03
2019-03-08T22:53:05.107Z,11.40
2019-03-08T22:55:33.388Z,14.27
2019-03-08T22:58:01.578Z,14.90
2019-03-08T23:00:49.675Z,12.30
2019-03-08T23:03:17.880Z,10.13
2019-03-08T23:05:47.366Z,8.73
2019-03-08T23:08:15.411Z,15.47
2019-03-08T23:10:43.741Z,11.57
2019-03-08T23:13:11.644Z,9.10
2019-03-08T23:15:39.606Z,11.00
2019-03-08T23:18:07.495Z,9.63
2019-03-08T23:20:35.390Z,16.83
2019-03-08T23:23:03.330Z,11.90
2019-03-08T23:25:31.579Z,11.27
2019-03-08T23:28:17.401Z,9.37
2019-03-08T23:30:47.094Z,11.10
2019-03-08T23:33:15.092Z,13.30
2019-03-08T23:35:43.797Z,9.73
2019-03-08T23:38:11.916Z,9.70
2019-03-08T23:40:40.317Z,12.60
2019-03-08T23:43:08.416Z,14.60
2019-03-08T23:45:36.767Z,9.63
2019-03-08T23:48:04.868Z,13.07
2019-03-08T23:50:32.877Z,9.57
2019-03-08T23:53:00.793Z,11.40
2019-03-08T23:55:28.758Z,9.27
2019-03-08T23:57:57.114Z,11.77
